CheckWX is a tool to help pilots better visualize weather data.  It is not intended as a substitute for an official pre-flight weather briefing.

15:10:29 UTC

CYXT METAR
Terrace Airport
Terrace, Canada
Current

10 mins ago

CYXT 161500Z 18004KT 20SM FEW040 FEW080 SCT100 BKN230 15/12 A2997 RMK CU1AC1AC2CI3 AC LENTICULAR SLP152 DENSITY ALT 900FT
Observed
Jul-16 @ 15:00 UTC
Wind
  • 180° at 4 KTS
Visibility
20 SM
Flight Rules
VFR
Cloud Levels
  • Few at 4,000' AGL
  • Few at 8,000' AGL
  • Scattered at 10,000' AGL
  • Broken at 23,000' AGL
Temperature
15°C / 59°F
Dewpoint
12°C / 54°F
Humidity
82%
Altimeter
29.97" Hg
Pressure
1014.92 hPa
Previous

1 hour ago

CYXT 161400Z VRB02KT 20SM FEW040 SCT090 BKN230 13/11 A2997 RMK CU2AC1CI3 ACSL SLP151
Observed
Jul-16 @ 14:00 UTC
Wind
  • Variable at 2 KTS
Visibility
20 SM
Flight Rules
VFR
Cloud Levels
  • Few at 4,000' AGL
  • Scattered at 9,000' AGL
  • Broken at 23,000' AGL
Temperature
13°C / 55°F
Dewpoint
11°C / 52°F
Humidity
88%
Altimeter
29.97" Hg
Pressure
1014.92 hPa
Previous

2 hours ago

CYXT 161300Z 14005KT 20SM FEW040 SCT090 BKN230 12/11 A2997 RMK CU2AC1CI3 SLP153
Observed
Jul-16 @ 13:00 UTC
Wind
  • 140° at 5 KTS
Visibility
20 SM
Flight Rules
VFR
Cloud Levels
  • Few at 4,000' AGL
  • Scattered at 9,000' AGL
  • Broken at 23,000' AGL
Temperature
12°C / 54°F
Dewpoint
11°C / 52°F
Humidity
94%
Altimeter
29.97" Hg
Pressure
1014.92 hPa